createdAt,value
2017-10-28T00:01:36.526Z,101754.86
2017-10-28T00:04:04.011Z,101752.64
2017-10-28T00:06:31.465Z,101753.14
2017-10-28T00:08:58.965Z,101755.73
2017-10-28T00:11:26.498Z,101748.00
2017-10-28T00:13:53.996Z,101746.23
2017-10-28T00:16:21.461Z,101739.70
2017-10-28T00:18:48.977Z,101740.02
2017-10-28T00:21:16.433Z,101729.06
2017-10-28T00:23:43.917Z,101721.61
2017-10-28T00:26:11.443Z,101724.95
2017-10-28T00:28:39.101Z,101728.70
2017-10-28T00:31:12.149Z,101730.80
2017-10-28T00:33:45.164Z,101722.66
2017-10-28T00:36:14.390Z,101724.05
2017-10-28T00:38:41.838Z,101723.50
2017-10-28T00:41:09.281Z,101713.42
2017-10-28T00:43:36.840Z,101716.43
2017-10-28T00:46:04.278Z,101720.67
2017-10-28T00:48:31.850Z,101721.52
2017-10-28T00:50:59.311Z,101722.00
2017-10-28T00:53:26.763Z,101720.72
2017-10-28T00:55:54.235Z,101718.27
2017-10-28T00:58:21.784Z,101720.48
2017-10-28T01:00:49.235Z,101719.59
2017-10-28T01:03:16.679Z,101715.52
2017-10-28T01:05:44.160Z,101717.84
2017-10-28T01:08:11.598Z,101711.27
2017-10-28T01:10:39.183Z,101703.61
2017-10-28T01:13:06.624Z,101700.53
2017-10-28T01:15:34.088Z,101695.64
2017-10-28T01:18:01.547Z,101689.24
2017-10-28T01:20:29.010Z,101691.45
2017-10-28T01:22:56.466Z,101686.64
2017-10-28T01:25:23.947Z,101681.19
2017-10-28T01:27:51.466Z,101675.84
2017-10-28T01:30:18.908Z,101670.95
2017-10-28T01:32:46.375Z,101669.77
2017-10-28T01:35:13.810Z,101655.22
2017-10-28T01:37:41.275Z,101654.34
2017-10-28T01:40:08.749Z,101656.78
2017-10-28T01:42:36.211Z,101660.52
2017-10-28T01:45:03.648Z,101654.44
2017-10-28T01:47:31.127Z,101651.79
2017-10-28T01:49:58.566Z,101649.89
2017-10-28T01:52:26.036Z,101647.16
2017-10-28T01:54:53.471Z,101645.88
2017-10-28T01:57:20.923Z,101637.03
2017-10-28T01:59:48.374Z,101629.48
2017-10-28T02:02:15.847Z,101620.16
2017-10-28T02:04:43.314Z,101619.70
2017-10-28T02:07:10.760Z,101614.72
2017-10-28T02:09:38.242Z,101612.97
2017-10-28T02:12:05.695Z,101608.98
2017-10-28T02:14:33.160Z,101613.39
2017-10-28T02:17:00.605Z,101619.27
2017-10-28T02:19:28.071Z,101613.94
2017-10-28T02:21:55.522Z,101607.00
2017-10-28T02:24:23.002Z,101609.37
2017-10-28T02:26:50.551Z,101604.70
2017-10-28T02:29:18.007Z,101599.47
2017-10-28T02:31:45.447Z,101596.02
2017-10-28T02:34:12.919Z,101583.78
2017-10-28T02:36:40.372Z,101582.95
2017-10-28T02:39:07.839Z,101589.98
2017-10-28T02:41:35.367Z,101584.22
2017-10-28T02:44:02.822Z,101577.68
2017-10-28T02:46:30.281Z,101584.22
2017-10-28T02:48:57.751Z,101576.72
2017-10-28T02:51:25.215Z,101574.98
2017-10-28T02:53:52.651Z,101567.42
2017-10-28T02:56:20.209Z,101562.13
2017-10-28T02:58:47.660Z,101556.92
2017-10-28T03:01:15.134Z,101552.91
2017-10-28T03:03:42.581Z,101552.07
2017-10-28T03:06:10.067Z,101554.23
2017-10-28T03:08:37.583Z,101563.56
2017-10-28T03:11:05.055Z,101560.83
2017-10-28T03:13:32.583Z,101550.24
2017-10-28T03:16:00.061Z,101548.45
2017-10-28T03:18:27.508Z,101538.74
2017-10-28T03:20:54.972Z,101524.11
2017-10-28T03:23:22.406Z,101513.44
2017-10-28T03:25:49.866Z,101520.09
2017-10-28T03:28:17.311Z,101521.53
2017-10-28T03:30:44.775Z,101520.68
2017-10-28T03:33:12.236Z,101507.87
2017-10-28T03:35:39.690Z,101500.36
2017-10-28T03:38:07.132Z,101494.22
2017-10-28T03:40:34.623Z,101489.78
2017-10-28T03:43:02.074Z,101491.56
2017-10-28T03:45:29.536Z,101499.50
2017-10-28T03:47:57.020Z,101493.73
2017-10-28T03:50:24.482Z,101495.51
2017-10-28T03:52:51.938Z,101486.20
2017-10-28T03:55:19.415Z,101479.54
2017-10-28T03:57:46.879Z,101475.14
2017-10-28T04:00:14.367Z,101471.55
2017-10-28T04:02:41.823Z,101471.10
2017-10-28T04:05:09.296Z,101465.84
2017-10-28T04:07:36.751Z,101476.91
2017-10-28T04:10:04.196Z,101468.53
2017-10-28T04:12:31.660Z,101467.21
2017-10-28T04:14:59.124Z,101462.77
2017-10-28T04:17:26.583Z,101458.34
2017-10-28T04:19:54.048Z,101464.44
2017-10-28T04:22:21.632Z,101453.95
2017-10-28T04:24:49.245Z,101458.34
2017-10-28T04:27:16.713Z,101457.86
2017-10-28T04:29:44.146Z,101457.45
2017-10-28T04:32:11.607Z,101446.78
2017-10-28T04:34:39.059Z,101438.81
2017-10-28T04:37:06.527Z,101434.84
2017-10-28T04:39:33.965Z,101441.81
2017-10-28T04:42:01.450Z,101439.20
2017-10-28T04:44:28.901Z,101437.45
2017-10-28T04:46:56.342Z,101434.81
2017-10-28T04:49:23.815Z,101427.67
2017-10-28T04:51:51.378Z,101433.35
2017-10-28T04:54:18.840Z,101420.11
2017-10-28T04:56:46.317Z,101415.59
2017-10-28T04:59:13.787Z,101409.05
2017-10-28T05:01:41.229Z,101399.22
2017-10-28T05:04:08.700Z,101403.27
2017-10-28T05:06:36.146Z,101394.85
2017-10-28T05:09:03.627Z,101392.52
2017-10-28T05:11:31.082Z,101384.58
2017-10-28T05:13:58.543Z,101390.31
2017-10-28T05:16:25.994Z,101387.17
2017-10-28T05:18:53.460Z,101377.47
2017-10-28T05:21:20.899Z,101376.91
2017-10-28T05:23:48.413Z,101369.36
2017-10-28T05:26:15.847Z,101349.33
2017-10-28T05:28:43.307Z,101345.11
2017-10-28T05:31:10.746Z,101339.25
2017-10-28T05:33:38.206Z,101341.14
2017-10-28T05:36:05.650Z,101335.73
2017-10-28T05:38:33.132Z,101329.09
2017-10-28T05:41:00.575Z,101332.93
2017-10-28T05:43:28.044Z,101339.09
2017-10-28T05:45:55.492Z,101338.36
2017-10-28T05:48:22.946Z,101336.62
2017-10-28T05:50:50.436Z,101333.75
2017-10-28T05:53:17.930Z,101336.58
2017-10-28T05:55:45.456Z,101338.34
2017-10-28T05:58:13.005Z,101349.02
2017-10-28T06:00:40.468Z,101344.67
2017-10-28T06:03:07.917Z,101336.25
2017-10-28T06:05:35.387Z,101333.96
2017-10-28T06:08:02.823Z,101328.63
2017-10-28T06:10:30.283Z,101323.33
2017-10-28T06:12:57.731Z,101330.02
2017-10-28T06:15:25.205Z,101317.19
2017-10-28T06:17:52.648Z,101330.97
2017-10-28T06:20:20.124Z,101336.30
2017-10-28T06:22:47.571Z,101317.80
2017-10-28T06:25:15.133Z,101313.89
2017-10-28T06:27:42.571Z,101308.61
2017-10-28T06:30:10.043Z,101317.39
2017-10-28T06:32:37.487Z,101316.11
2017-10-28T06:35:05.086Z,101322.75
2017-10-28T06:37:32.528Z,101327.67
2017-10-28T06:39:59.991Z,101309.95
2017-10-28T06:42:27.427Z,101310.86
2017-10-28T06:44:54.902Z,101314.83
2017-10-28T06:47:22.438Z,101315.75
2017-10-28T06:49:49.900Z,101318.42
2017-10-28T06:52:17.505Z,101322.79
2017-10-28T06:54:44.954Z,101318.78
2017-10-28T06:57:12.479Z,101320.92
2017-10-28T06:59:39.924Z,101317.23
2017-10-28T07:02:07.409Z,101316.70
2017-10-28T07:04:34.864Z,101317.59
2017-10-28T07:07:02.331Z,101329.53
2017-10-28T07:09:29.778Z,101333.82
2017-10-28T07:11:57.238Z,101334.22
2017-10-28T07:14:24.782Z,101336.91
2017-10-28T07:16:52.244Z,101336.45
2017-10-28T07:19:19.891Z,101333.02
2017-10-28T07:21:47.375Z,101328.91
2017-10-28T07:24:14.824Z,101325.40
2017-10-28T07:26:42.302Z,101314.69
2017-10-28T07:29:09.738Z,101297.41
2017-10-28T07:31:37.285Z,101298.16
2017-10-28T07:34:04.860Z,101290.13
2017-10-28T07:36:32.392Z,101282.66
2017-10-28T07:38:59.838Z,101279.06
2017-10-28T07:41:27.304Z,101269.65
2017-10-28T07:43:54.751Z,101281.16
2017-10-28T07:46:22.222Z,101276.73
2017-10-28T07:48:49.679Z,101279.33
2017-10-28T07:51:17.134Z,101287.20
2017-10-28T07:53:44.582Z,101281.97
2017-10-28T07:56:12.043Z,101269.73
2017-10-28T07:58:39.491Z,101271.75
2017-10-28T08:01:06.932Z,101278.81
2017-10-28T08:03:34.400Z,101277.37
2017-10-28T08:06:01.862Z,101269.47
2017-10-28T08:08:29.335Z,101262.04
2017-10-28T08:10:56.782Z,101265.05
2017-10-28T08:13:24.256Z,101258.41
2017-10-28T08:15:51.706Z,101268.59
2017-10-28T08:18:19.171Z,101272.95
2017-10-28T08:20:46.715Z,101267.71
2017-10-28T08:23:14.174Z,101272.59
2017-10-28T08:25:41.639Z,101277.87
2017-10-28T08:28:09.113Z,101281.92
2017-10-28T08:30:36.658Z,101275.14
2017-10-28T08:33:04.127Z,101284.37
2017-10-28T08:35:31.712Z,101289.27
2017-10-28T08:37:59.228Z,101277.13
2017-10-28T08:40:26.772Z,101264.73
2017-10-28T08:42:54.239Z,101269.52
2017-10-28T08:45:21.689Z,101267.35
2017-10-28T08:47:49.164Z,101250.93
2017-10-28T08:50:16.602Z,101252.65
2017-10-28T08:52:44.070Z,101249.94
2017-10-28T08:55:11.510Z,101231.78
2017-10-28T08:57:39.006Z,101247.16
2017-10-28T09:00:06.457Z,101254.80
2017-10-28T09:02:33.940Z,101246.75
2017-10-28T09:05:01.406Z,101246.42
2017-10-28T09:07:28.847Z,101259.94
2017-10-28T09:09:56.306Z,101266.96
2017-10-28T09:12:23.752Z,101267.47
2017-10-28T09:14:51.234Z,101266.07
2017-10-28T09:17:18.683Z,101258.00
2017-10-28T09:19:46.143Z,101245.09
2017-10-28T09:22:13.584Z,101247.59
2017-10-28T09:24:41.056Z,101247.52
2017-10-28T09:27:08.498Z,101238.94
2017-10-28T09:29:35.959Z,101225.64
2017-10-28T09:32:03.518Z,101214.59
2017-10-28T09:34:30.998Z,101217.38
2017-10-28T09:36:58.470Z,101215.68
2017-10-28T09:39:25.928Z,101207.56
2017-10-28T09:41:53.392Z,101210.27
2017-10-28T09:44:20.872Z,101196.23
2017-10-28T09:46:48.363Z,101205.33
2017-10-28T09:49:15.816Z,101217.37
2017-10-28T09:51:43.287Z,101209.58
2017-10-28T09:54:10.727Z,101223.70
2017-10-28T09:56:38.204Z,101227.37
2017-10-28T09:59:05.671Z,101225.02
2017-10-28T10:01:33.134Z,101224.89
2017-10-28T10:04:00.604Z,101222.27
2017-10-28T10:06:28.063Z,101209.63
2017-10-28T10:08:55.524Z,101206.98
2017-10-28T10:11:22.983Z,101199.59
2017-10-28T10:13:50.440Z,101196.80
2017-10-28T10:16:17.941Z,101183.05
2017-10-28T10:18:45.393Z,101161.94
2017-10-28T10:21:12.833Z,101159.45
2017-10-28T10:23:40.367Z,101157.89
2017-10-28T10:26:07.819Z,101164.38
2017-10-28T10:28:35.282Z,101162.59
2017-10-28T10:31:02.819Z,101161.71
2017-10-28T10:33:30.307Z,101162.80
2017-10-28T10:35:57.755Z,101158.78
2017-10-28T10:38:25.223Z,101147.92
2017-10-28T10:40:52.663Z,101152.56
2017-10-28T10:43:20.216Z,101153.98
2017-10-28T10:45:47.674Z,101151.06
2017-10-28T10:48:15.135Z,101146.63
2017-10-28T10:50:42.584Z,101153.45
2017-10-28T10:53:10.043Z,101153.91
2017-10-28T10:55:37.492Z,101152.66
2017-10-28T10:58:04.979Z,101157.14
2017-10-28T11:00:32.428Z,101146.48
2017-10-28T11:02:59.967Z,101141.77
2017-10-28T11:05:27.538Z,101125.37
2017-10-28T11:07:54.978Z,101099.52
2017-10-28T11:10:22.539Z,101112.63
2017-10-28T11:12:49.987Z,101105.14
2017-10-28T11:15:17.446Z,101099.89
2017-10-28T11:17:44.886Z,101093.05
2017-10-28T11:20:12.358Z,101081.07
2017-10-28T11:22:39.804Z,101085.20
2017-10-28T11:25:07.315Z,101098.34
2017-10-28T11:27:34.754Z,101087.10
2017-10-28T11:30:02.215Z,101090.91
2017-10-28T11:32:29.662Z,101096.31
2017-10-28T11:34:57.126Z,101083.12
2017-10-28T11:37:24.570Z,101076.84
2017-10-28T11:39:52.031Z,101074.04
2017-10-28T11:42:19.579Z,101063.16
2017-10-28T11:44:47.050Z,101049.23
2017-10-28T11:47:14.507Z,101047.77
2017-10-28T11:49:41.950Z,101034.64
2017-10-28T11:52:09.416Z,101034.26
2017-10-28T11:54:36.879Z,101032.66
2017-10-28T11:57:04.357Z,101029.06
2017-10-28T11:59:31.801Z,101022.45
2017-10-28T12:01:59.280Z,101026.97
2017-10-28T12:04:26.727Z,101025.59
2017-10-28T12:06:54.222Z,101024.41
2017-10-28T12:09:21.668Z,101014.72
2017-10-28T12:11:49.158Z,101011.07
2017-10-28T12:14:16.717Z,100996.96
2017-10-28T12:16:44.179Z,101003.92
2017-10-28T12:19:11.664Z,101007.92
2017-10-28T12:21:39.188Z,101002.91
2017-10-28T12:24:06.658Z,100994.59
2017-10-28T12:26:34.116Z,100995.23
2017-10-28T12:29:01.599Z,100996.00
2017-10-28T12:31:29.047Z,100986.59
2017-10-28T12:33:56.517Z,100989.87
2017-10-28T12:36:24.051Z,100985.49
2017-10-28T12:38:51.514Z,100997.23
2017-10-28T12:41:18.965Z,100991.30
2017-10-28T12:43:46.459Z,100983.33
2017-10-28T12:46:13.920Z,100981.27
2017-10-28T12:48:41.371Z,100966.38
2017-10-28T12:51:08.831Z,100956.91
2017-10-28T12:53:36.334Z,100942.19
2017-10-28T12:56:03.795Z,100933.62
2017-10-28T12:58:31.240Z,100919.19
2017-10-28T13:00:58.707Z,100925.84
2017-10-28T13:03:26.159Z,100924.41
2017-10-28T13:05:53.640Z,100913.53
2017-10-28T13:08:21.103Z,100913.95
2017-10-28T13:10:48.565Z,100900.01
2017-10-28T13:13:16.037Z,100896.38
2017-10-28T13:15:43.484Z,100886.77
2017-10-28T13:18:10.963Z,100887.29
2017-10-28T13:20:38.464Z,100888.73
2017-10-28T13:23:05.956Z,100887.98
2017-10-28T13:25:33.402Z,100874.98
2017-10-28T13:28:00.923Z,100874.63
2017-10-28T13:30:28.482Z,100865.28
2017-10-28T13:32:55.968Z,100865.38
2017-10-28T13:35:23.423Z,100849.81
2017-10-28T13:37:50.878Z,100845.46
2017-10-28T13:40:18.347Z,100842.98
2017-10-28T13:42:45.870Z,100842.81
2017-10-28T13:45:13.335Z,100830.61
2017-10-28T13:47:40.779Z,100830.28
2017-10-28T13:50:08.242Z,100831.42
2017-10-28T13:52:35.688Z,100813.25
2017-10-28T13:55:03.154Z,100820.77
2017-10-28T13:57:30.624Z,100828.36
2017-10-28T13:59:58.154Z,100817.70
2017-10-28T14:02:25.623Z,100814.94
2017-10-28T14:04:53.091Z,100821.33
2017-10-28T14:07:20.545Z,100823.64
2017-10-28T14:09:48.039Z,100822.17
2017-10-28T14:12:15.544Z,100815.34
2017-10-28T14:14:43.828Z,100813.75
2017-10-28T14:17:11.305Z,100813.45
2017-10-28T14:19:38.843Z,100806.70
2017-10-28T14:22:06.456Z,100806.70
2017-10-28T14:24:33.922Z,100797.92
2017-10-28T14:27:01.433Z,100801.68
2017-10-28T14:29:28.974Z,100814.50
2017-10-28T14:31:56.440Z,100806.27
2017-10-28T14:34:23.888Z,100816.10
2017-10-28T14:36:51.446Z,100818.59
2017-10-28T14:39:18.899Z,100811.59
2017-10-28T14:41:46.370Z,100799.52
2017-10-28T14:44:13.835Z,100792.77
2017-10-28T14:46:41.300Z,100779.80
2017-10-28T14:49:08.851Z,100779.20
2017-10-28T14:51:36.292Z,100761.66
2017-10-28T14:54:03.755Z,100763.13
2017-10-28T14:56:31.196Z,100769.42
2017-10-28T14:58:58.670Z,100769.70
2017-10-28T15:01:26.135Z,100770.02
2017-10-28T15:03:53.608Z,100768.55
2017-10-28T15:06:21.063Z,100767.62
2017-10-28T15:08:48.575Z,100764.73
2017-10-28T15:11:16.026Z,100754.79
2017-10-28T15:13:43.474Z,100748.05
2017-10-28T15:16:10.984Z,100759.70
2017-10-28T15:18:38.450Z,100746.73
2017-10-28T15:21:05.970Z,100742.01
2017-10-28T15:23:33.526Z,100742.37
2017-10-28T15:26:00.990Z,100736.11
2017-10-28T15:28:28.450Z,100733.14
2017-10-28T15:30:55.931Z,100720.06
2017-10-28T15:33:23.887Z,100722.02
2017-10-28T15:35:51.367Z,100722.73
2017-10-28T15:38:18.842Z,100727.63
2017-10-28T15:40:46.332Z,100730.01
2017-10-28T15:43:13.806Z,100722.86
2017-10-28T15:45:41.263Z,100721.81
2017-10-28T15:48:08.722Z,100723.62
2017-10-28T15:50:36.168Z,100724.55
2017-10-28T15:53:03.634Z,100718.47
2017-10-28T15:55:31.177Z,100712.84
2017-10-28T15:57:58.664Z,100710.83
2017-10-28T16:00:26.166Z,100711.44
2017-10-28T16:02:53.651Z,100708.92
2017-10-28T16:05:21.103Z,100700.95
2017-10-28T16:07:48.590Z,100708.44
2017-10-28T16:10:16.058Z,100692.88
2017-10-28T16:12:43.502Z,100701.74
2017-10-28T16:15:11.368Z,100710.91
2017-10-28T16:17:38.812Z,100713.50
2017-10-28T16:20:06.599Z,100711.11
2017-10-28T16:22:34.071Z,100717.91
2017-10-28T16:25:01.563Z,100721.11
2017-10-28T16:27:29.015Z,100714.13
2017-10-28T16:29:56.486Z,100714.53
2017-10-28T16:32:23.941Z,100709.64
2017-10-28T16:34:51.550Z,100706.28
2017-10-28T16:37:19.005Z,100700.48
2017-10-28T16:39:46.711Z,100689.52
2017-10-28T16:42:14.365Z,100693.37
2017-10-28T16:44:41.899Z,100693.16
2017-10-28T16:47:09.424Z,100686.34
2017-10-28T16:49:36.873Z,100683.58
2017-10-28T16:52:04.375Z,100664.18
2017-10-28T16:54:31.866Z,100665.83
2017-10-28T16:56:59.356Z,100653.30
2017-10-28T16:59:26.889Z,100659.14
2017-10-28T17:01:54.345Z,100666.30
2017-10-28T17:04:21.922Z,100656.11
2017-10-28T17:06:49.418Z,100645.09
2017-10-28T17:09:16.873Z,100652.59
2017-10-28T17:11:44.525Z,100646.30
2017-10-28T17:14:11.970Z,100660.11
2017-10-28T17:16:39.454Z,100651.27
2017-10-28T17:19:06.898Z,100656.89
2017-10-28T17:21:34.358Z,100648.14
2017-10-28T17:24:01.823Z,100648.41
2017-10-28T17:26:29.264Z,100646.86
2017-10-28T17:28:56.727Z,100641.01
2017-10-28T17:31:24.182Z,100640.27
2017-10-28T17:33:51.651Z,100637.03
2017-10-28T17:36:19.105Z,100630.39
2017-10-28T17:38:46.566Z,100625.64
2017-10-28T17:41:14.112Z,100619.81
2017-10-28T17:43:41.580Z,100620.78
2017-10-28T17:46:09.074Z,100613.02
2017-10-28T17:48:36.531Z,100605.16
2017-10-28T17:51:04.100Z,100603.22
2017-10-28T17:53:31.593Z,100600.86
2017-10-28T17:55:59.043Z,100598.66
2017-10-28T17:58:26.561Z,100590.04
2017-10-28T18:00:54.026Z,100586.53
2017-10-28T18:03:21.577Z,100591.98
2017-10-28T18:05:49.050Z,100576.63
2017-10-28T18:08:16.502Z,100573.97
2017-10-28T18:10:43.998Z,100569.22
2017-10-28T18:13:11.538Z,100570.76
2017-10-28T18:15:39.013Z,100564.61
2017-10-28T18:18:06.459Z,100556.89
2017-10-28T18:20:33.947Z,100548.95
2017-10-28T18:23:01.401Z,100552.97
2017-10-28T18:25:28.871Z,100545.71
2017-10-28T18:27:56.347Z,100542.23
2017-10-28T18:30:23.807Z,100550.91
2017-10-28T18:32:51.375Z,100540.64
2017-10-28T18:35:18.843Z,100529.48
2017-10-28T18:37:46.288Z,100533.31
2017-10-28T18:40:13.777Z,100539.64
2017-10-28T18:42:41.290Z,100536.94
2017-10-28T18:45:08.754Z,100542.50
2017-10-28T18:47:36.228Z,100527.38
2017-10-28T18:50:03.670Z,100541.26
2017-10-28T18:52:31.170Z,100518.34
2017-10-28T18:54:58.673Z,100535.34
2017-10-28T18:57:26.159Z,100522.64
2017-10-28T18:59:53.620Z,100516.62
2017-10-28T19:02:21.119Z,100522.37
2017-10-28T19:04:48.568Z,100516.66
2017-10-28T19:07:16.036Z,100513.55
2017-10-28T19:09:43.493Z,100511.55
2017-10-28T19:12:10.953Z,100509.31
2017-10-28T19:14:38.399Z,100512.81
2017-10-28T19:17:05.884Z,100519.41
2017-10-28T19:19:33.323Z,100518.04
2017-10-28T19:22:00.810Z,100512.79
2017-10-28T19:24:28.279Z,100500.47
2017-10-28T19:26:55.723Z,100489.95
2017-10-28T19:29:23.188Z,100487.23
2017-10-28T19:31:50.719Z,100483.92
2017-10-28T19:34:18.184Z,100477.52
2017-10-28T19:36:45.624Z,100474.33
2017-10-28T19:39:13.090Z,100478.88
2017-10-28T19:41:40.562Z,100476.30
2017-10-28T19:44:08.035Z,100475.56
2017-10-28T19:46:35.475Z,100470.05
2017-10-28T19:49:02.947Z,100470.58
2017-10-28T19:51:30.451Z,100464.99
2017-10-28T19:53:57.927Z,100466.59
2017-10-28T19:56:25.375Z,100459.67
2017-10-28T19:58:52.831Z,100464.00
2017-10-28T20:01:20.424Z,100458.59
2017-10-28T20:03:47.927Z,100462.59
2017-10-28T20:06:15.423Z,100454.36
2017-10-28T20:08:42.875Z,100458.39
2017-10-28T20:11:10.346Z,100455.38
2017-10-28T20:13:37.791Z,100441.17
2017-10-28T20:16:05.333Z,100435.52
2017-10-28T20:18:32.784Z,100420.66
2017-10-28T20:21:00.247Z,100416.00
2017-10-28T20:23:27.720Z,100403.98
2017-10-28T20:25:55.203Z,100409.91
2017-10-28T20:28:22.729Z,100411.49
2017-10-28T20:30:50.182Z,100403.59
2017-10-28T20:33:17.743Z,100396.16
2017-10-28T20:35:45.191Z,100395.33
2017-10-28T20:38:12.671Z,100384.11
2017-10-28T20:40:40.109Z,100377.11
2017-10-28T20:43:07.668Z,100372.59
2017-10-28T20:45:35.201Z,100371.70
2017-10-28T20:48:02.828Z,100372.25
2017-10-28T20:50:30.275Z,100365.44
2017-10-28T20:52:57.802Z,100358.63
2017-10-28T20:55:25.268Z,100351.03
2017-10-28T20:57:52.720Z,100351.44
2017-10-28T21:00:20.192Z,100340.42
2017-10-28T21:02:47.652Z,100336.97
2017-10-28T21:05:15.191Z,100338.27
2017-10-28T21:07:42.640Z,100340.78
2017-10-28T21:10:10.105Z,100321.93
2017-10-28T21:12:37.550Z,100310.47
2017-10-28T21:15:05.028Z,100299.67
2017-10-28T21:17:32.491Z,100289.03
2017-10-28T21:19:59.940Z,100274.42
2017-10-28T21:22:27.494Z,100272.79
2017-10-28T21:24:54.964Z,100256.34
2017-10-28T21:27:22.448Z,100251.73
2017-10-28T21:29:49.964Z,100252.79
2017-10-28T21:32:17.450Z,100239.83
2017-10-28T21:34:44.898Z,100238.21
2017-10-28T21:37:12.367Z,100239.52
2017-10-28T21:39:39.810Z,100236.17
2017-10-28T21:42:07.290Z,100234.19
2017-10-28T21:44:34.799Z,100227.05
2017-10-28T21:47:02.238Z,100228.41
2017-10-28T21:49:29.735Z,100226.48
2017-10-28T21:51:57.278Z,100220.47
2017-10-28T21:54:24.832Z,100223.36
2017-10-28T21:56:52.297Z,100226.45
2017-10-28T21:59:19.847Z,100211.02
2017-10-28T22:01:47.289Z,100212.63
2017-10-28T22:04:14.746Z,100203.84
2017-10-28T22:06:42.203Z,100202.58
2017-10-28T22:09:09.662Z,100209.42
2017-10-28T22:11:37.102Z,100203.48
2017-10-28T22:14:04.560Z,100186.84
2017-10-28T22:16:32.030Z,100184.47
2017-10-28T22:18:59.512Z,100186.45
2017-10-28T22:21:26.999Z,100179.37
2017-10-28T22:23:54.442Z,100170.60
2017-10-28T22:26:21.957Z,100169.95
2017-10-28T22:28:49.432Z,100161.02
2017-10-28T22:31:16.914Z,100151.23
2017-10-28T22:33:44.447Z,100140.77
2017-10-28T22:36:11.913Z,100142.93
2017-10-28T22:38:39.360Z,100129.16
2017-10-28T22:41:06.910Z,100118.49
2017-10-28T22:43:34.366Z,100118.16
2017-10-28T22:46:01.856Z,100120.47
2017-10-28T22:48:29.383Z,100112.51
2017-10-28T22:50:56.827Z,100100.01
2017-10-28T22:53:24.316Z,100099.23
2017-10-28T22:55:51.756Z,100092.61
2017-10-28T22:58:19.316Z,100093.07
2017-10-28T23:00:46.761Z,100084.87
2017-10-28T23:03:14.234Z,100080.11
2017-10-28T23:05:41.684Z,100086.72
2017-10-28T23:08:09.146Z,100085.65
2017-10-28T23:10:36.587Z,100086.11
2017-10-28T23:13:04.067Z,100078.48
2017-10-28T23:15:31.506Z,100073.61
2017-10-28T23:17:58.977Z,100052.55
2017-10-28T23:20:26.534Z,100062.11
2017-10-28T23:22:54.083Z,100063.24
2017-10-28T23:25:21.545Z,100041.54
2017-10-28T23:27:49.098Z,100048.01
2017-10-28T23:30:16.550Z,100042.24
2017-10-28T23:32:44.001Z,100054.17
2017-10-28T23:35:11.472Z,100038.97
2017-10-28T23:37:39.018Z,100006.94
2017-10-28T23:40:06.479Z,100009.23
2017-10-28T23:42:33.918Z,100022.81
2017-10-28T23:45:01.375Z,100011.57
2017-10-28T23:47:28.814Z,100007.85
2017-10-28T23:49:56.283Z,100010.08
2017-10-28T23:52:23.770Z,99996.01
2017-10-28T23:54:51.344Z,99996.70
2017-10-28T23:57:18.784Z,99996.70
2017-10-28T23:59:46.334Z,99995.17
